sensor_id;sensor_type;location;lat;lon;timestamp;temperature;humidity
37432;DHT22;23292;51.300;6.252;2022-12-29T00:01:59;11.00;99.90
37432;DHT22;23292;51.300;6.252;2022-12-29T00:04:25;11.10;99.90
37432;DHT22;23292;51.300;6.252;2022-12-29T00:06:53;11.10;99.90
37432;DHT22;23292;51.300;6.252;2022-12-29T00:09:20;11.10;99.90
37432;DHT22;23292;51.300;6.252;2022-12-29T00:11:47;11.10;99.90
37432;DHT22;23292;51.300;6.252;2022-12-29T00:14:16;11.10;99.90
37432;DHT22;23292;51.300;6.252;2022-12-29T00:17:02;11.10;99.90
37432;DHT22;23292;51.300;6.252;2022-12-29T00:19:29;11.20;99.90
37432;DHT22;23292;51.300;6.252;2022-12-29T00:22:15;11.30;99.90
37432;DHT22;23292;51.300;6.252;2022-12-29T00:25:01;11.20;99.90
37432;DHT22;23292;51.300;6.252;2022-12-29T00:27:29;11.20;99.90
37432;DHT22;23292;51.300;6.252;2022-12-29T00:30:20;11.30;99.90
37432;DHT22;23292;51.300;6.252;2022-12-29T00:33:17;11.20;99.90
37432;DHT22;23292;51.300;6.252;2022-12-29T00:36:10;11.20;99.90
37432;DHT22;23292;51.300;6.252;2022-12-29T00:38:40;11.10;99.90
37432;DHT22;23292;51.300;6.252;2022-12-29T00:41:28;11.10;99.90
37432;DHT22;23292;51.300;6.252;2022-12-29T00:44:13;11.00;99.90
37432;DHT22;23292;51.300;6.252;2022-12-29T00:46:41;11.00;99.90
37432;DHT22;23292;51.300;6.252;2022-12-29T00:49:11;11.00;99.90
37432;DHT22;23292;51.300;6.252;2022-12-29T00:52:05;11.00;99.90
37432;DHT22;23292;51.300;6.252;2022-12-29T00:54:34;11.00;99.90
37432;DHT22;23292;51.300;6.252;2022-12-29T00:57:03;11.00;99.90
37432;DHT22;23292;51.300;6.252;2022-12-29T00:59:30;11.00;99.90
37432;DHT22;23292;51.300;6.252;2022-12-29T01:01:57;11.00;99.90
37432;DHT22;23292;51.300;6.252;2022-12-29T01:04:25;11.10;99.90
37432;DHT22;23292;51.300;6.252;2022-12-29T01:06:52;11.10;99.90
37432;DHT22;23292;51.300;6.252;2022-12-29T01:09:19;11.20;99.90
37432;DHT22;23292;51.300;6.252;2022-12-29T01:12:06;11.20;99.90
37432;DHT22;23292;51.300;6.252;2022-12-29T01:14:34;11.40;99.90
37432;DHT22;23292;51.300;6.252;2022-12-29T01:17:02;11.50;99.90
37432;DHT22;23292;51.300;6.252;2022-12-29T01:19:28;11.50;99.90
37432;DHT22;23292;51.300;6.252;2022-12-29T01:21:55;11.60;99.90
37432;DHT22;23292;51.300;6.252;2022-12-29T01:24:22;11.60;99.90
37432;DHT22;23292;51.300;6.252;2022-12-29T01:26:49;11.60;99.90
37432;DHT22;23292;51.300;6.252;2022-12-29T01:29:16;11.60;99.90
37432;DHT22;23292;51.300;6.252;2022-12-29T01:31:45;11.70;99.90
37432;DHT22;23292;51.300;6.252;2022-12-29T01:34:12;11.60;99.90
37432;DHT22;23292;51.300;6.252;2022-12-29T01:36:39;11.60;99.90
37432;DHT22;23292;51.300;6.252;2022-12-29T01:39:06;11.60;99.90
37432;DHT22;23292;51.300;6.252;2022-12-29T01:41:33;11.70;99.90
37432;DHT22;23292;51.300;6.252;2022-12-29T01:44:01;11.60;99.90
37432;DHT22;23292;51.300;6.252;2022-12-29T01:46:31;11.60;99.90
37432;DHT22;23292;51.300;6.252;2022-12-29T01:49:19;11.70;99.90
37432;DHT22;23292;51.300;6.252;2022-12-29T01:54:19;11.80;99.90
37432;DHT22;23292;51.300;6.252;2022-12-29T01:56:48;11.80;99.90
37432;DHT22;23292;51.300;6.252;2022-12-29T01:59:19;11.70;99.90
37432;DHT22;23292;51.300;6.252;2022-12-29T02:01:47;11.80;99.90
37432;DHT22;23292;51.300;6.252;2022-12-29T02:04:14;11.80;99.90
37432;DHT22;23292;51.300;6.252;2022-12-29T02:06:51;11.80;99.90
37432;DHT22;23292;51.300;6.252;2022-12-29T02:09:19;11.80;99.90
37432;DHT22;23292;51.300;6.252;2022-12-29T02:11:49;11.80;99.90
37432;DHT22;23292;51.300;6.252;2022-12-29T02:14:17;11.90;99.90
37432;DHT22;23292;51.300;6.252;2022-12-29T02:41:37;11.90;99.90
37432;DHT22;23292;51.300;6.252;2022-12-29T02:47:16;11.90;99.90
37432;DHT22;23292;51.300;6.252;2022-12-29T02:49:57;11.80;99.90
37432;DHT22;23292;51.300;6.252;2022-12-29T02:52:31;11.80;99.90
37432;DHT22;23292;51.300;6.252;2022-12-29T02:55:01;11.80;99.90
37432;DHT22;23292;51.300;6.252;2022-12-29T02:57:31;11.70;99.90
37432;DHT22;23292;51.300;6.252;2022-12-29T03:00:07;11.70;99.90
37432;DHT22;23292;51.300;6.252;2022-12-29T03:05:09;11.80;99.90
37432;DHT22;23292;51.300;6.252;2022-12-29T03:10:42;11.90;99.90
37432;DHT22;23292;51.300;6.252;2022-12-29T03:19:06;11.80;99.90
37432;DHT22;23292;51.300;6.252;2022-12-29T03:21:39;11.90;99.90
37432;DHT22;23292;51.300;6.252;2022-12-29T03:24:34;11.90;99.90
37432;DHT22;23292;51.300;6.252;2022-12-29T03:27:04;12.00;99.90
37432;DHT22;23292;51.300;6.252;2022-12-29T03:29:40;11.90;99.90
37432;DHT22;23292;51.300;6.252;2022-12-29T03:32:09;11.80;99.90
37432;DHT22;23292;51.300;6.252;2022-12-29T03:34:38;11.80;99.90
37432;DHT22;23292;51.300;6.252;2022-12-29T03:37:12;11.70;99.90
37432;DHT22;23292;51.300;6.252;2022-12-29T03:39:41;11.70;99.90
37432;DHT22;23292;51.300;6.252;2022-12-29T03:42:19;11.60;99.90
37432;DHT22;23292;51.300;6.252;2022-12-29T03:44:47;11.70;99.90
37432;DHT22;23292;51.300;6.252;2022-12-29T03:47:15;11.70;99.90
37432;DHT22;23292;51.300;6.252;2022-12-29T03:49:44;11.60;99.90
37432;DHT22;23292;51.300;6.252;2022-12-29T03:52:11;11.50;99.90
37432;DHT22;23292;51.300;6.252;2022-12-29T03:54:42;11.40;99.90
37432;DHT22;23292;51.300;6.252;2022-12-29T03:57:10;11.30;99.90
37432;DHT22;23292;51.300;6.252;2022-12-29T03:59:55;11.40;99.90
37432;DHT22;23292;51.300;6.252;2022-12-29T04:02:22;11.40;99.90
37432;DHT22;23292;51.300;6.252;2022-12-29T04:04:51;11.40;99.90
37432;DHT22;23292;51.300;6.252;2022-12-29T04:07:18;11.50;99.90
37432;DHT22;23292;51.300;6.252;2022-12-29T04:09:45;11.50;99.90
37432;DHT22;23292;51.300;6.252;2022-12-29T04:12:18;11.50;99.90
37432;DHT22;23292;51.300;6.252;2022-12-29T04:14:44;11.60;99.90
37432;DHT22;23292;51.300;6.252;2022-12-29T04:17:11;11.60;99.90
37432;DHT22;23292;51.300;6.252;2022-12-29T04:19:40;11.70;99.90
37432;DHT22;23292;51.300;6.252;2022-12-29T04:22:06;11.70;99.90
37432;DHT22;23292;51.300;6.252;2022-12-29T04:24:34;11.80;99.90
37432;DHT22;23292;51.300;6.252;2022-12-29T04:27:02;11.80;99.90
37432;DHT22;23292;51.300;6.252;2022-12-29T04:29:43;11.90;99.90
37432;DHT22;23292;51.300;6.252;2022-12-29T04:32:39;11.90;99.90
37432;DHT22;23292;51.300;6.252;2022-12-29T04:35:07;11.90;99.90
37432;DHT22;23292;51.300;6.252;2022-12-29T04:37:34;12.00;99.90
37432;DHT22;23292;51.300;6.252;2022-12-29T04:40:02;12.00;99.90
37432;DHT22;23292;51.300;6.252;2022-12-29T04:42:29;12.00;99.90
37432;DHT22;23292;51.300;6.252;2022-12-29T04:44:56;12.10;99.90
37432;DHT22;23292;51.300;6.252;2022-12-29T04:47:52;12.10;99.90
37432;DHT22;23292;51.300;6.252;2022-12-29T04:50:27;12.00;99.90
37432;DHT22;23292;51.300;6.252;2022-12-29T04:53:13;12.10;99.90
37432;DHT22;23292;51.300;6.252;2022-12-29T04:55:42;12.10;99.90
37432;DHT22;23292;51.300;6.252;2022-12-29T04:58:09;12.10;99.90
37432;DHT22;23292;51.300;6.252;2022-12-29T05:00:36;12.10;99.90
37432;DHT22;23292;51.300;6.252;2022-12-29T05:03:03;12.00;99.90
37432;DHT22;23292;51.300;6.252;2022-12-29T05:05:30;12.00;99.90
37432;DHT22;23292;51.300;6.252;2022-12-29T05:07:58;12.00;99.90
37432;DHT22;23292;51.300;6.252;2022-12-29T05:10:24;11.90;99.90
37432;DHT22;23292;51.300;6.252;2022-12-29T05:12:53;11.90;99.90
37432;DHT22;23292;51.300;6.252;2022-12-29T05:15:20;11.80;99.90
37432;DHT22;23292;51.300;6.252;2022-12-29T05:17:47;11.70;99.90
37432;DHT22;23292;51.300;6.252;2022-12-29T05:20:14;11.60;99.90
37432;DHT22;23292;51.300;6.252;2022-12-29T05:22:41;11.50;99.90
37432;DHT22;23292;51.300;6.252;2022-12-29T05:25:08;11.60;99.90
37432;DHT22;23292;51.300;6.252;2022-12-29T05:27:49;11.50;99.90
37432;DHT22;23292;51.300;6.252;2022-12-29T05:30:26;11.40;99.90
37432;DHT22;23292;51.300;6.252;2022-12-29T05:32:54;11.30;99.90
37432;DHT22;23292;51.300;6.252;2022-12-29T05:35:20;11.30;99.90
37432;DHT22;23292;51.300;6.252;2022-12-29T05:37:47;11.20;99.90
37432;DHT22;23292;51.300;6.252;2022-12-29T05:40:14;11.20;99.90
37432;DHT22;23292;51.300;6.252;2022-12-29T05:42:44;11.10;99.90
37432;DHT22;23292;51.300;6.252;2022-12-29T05:45:24;11.10;99.90
37432;DHT22;23292;51.300;6.252;2022-12-29T05:47:55;11.00;99.90
37432;DHT22;23292;51.300;6.252;2022-12-29T05:50:40;10.90;99.90
37432;DHT22;23292;51.300;6.252;2022-12-29T05:53:08;10.90;99.90
37432;DHT22;23292;51.300;6.252;2022-12-29T05:55:36;10.90;99.90
37432;DHT22;23292;51.300;6.252;2022-12-29T05:58:06;10.90;99.90
37432;DHT22;23292;51.300;6.252;2022-12-29T06:00:33;10.90;99.90
37432;DHT22;23292;51.300;6.252;2022-12-29T06:03:00;10.90;99.90
37432;DHT22;23292;51.300;6.252;2022-12-29T06:05:27;10.90;99.90
37432;DHT22;23292;51.300;6.252;2022-12-29T06:07:54;11.00;99.90
37432;DHT22;23292;51.300;6.252;2022-12-29T06:10:22;11.10;99.90
37432;DHT22;23292;51.300;6.252;2022-12-29T06:13:09;11.10;99.90
37432;DHT22;23292;51.300;6.252;2022-12-29T06:15:40;11.10;99.90
37432;DHT22;23292;51.300;6.252;2022-12-29T06:18:07;11.20;99.90
37432;DHT22;23292;51.300;6.252;2022-12-29T06:20:43;11.20;99.90
37432;DHT22;23292;51.300;6.252;2022-12-29T06:23:10;11.30;99.90
37432;DHT22;23292;51.300;6.252;2022-12-29T06:25:38;11.20;99.90
37432;DHT22;23292;51.300;6.252;2022-12-29T06:28:06;11.20;99.90
37432;DHT22;23292;51.300;6.252;2022-12-29T06:30:32;11.20;99.90
37432;DHT22;23292;51.300;6.252;2022-12-29T06:33:00;11.20;99.90
37432;DHT22;23292;51.300;6.252;2022-12-29T06:35:28;11.20;99.90
37432;DHT22;23292;51.300;6.252;2022-12-29T06:37:54;11.20;99.90
37432;DHT22;23292;51.300;6.252;2022-12-29T06:40:21;11.20;99.90
37432;DHT22;23292;51.300;6.252;2022-12-29T06:43:09;11.20;99.90
37432;DHT22;23292;51.300;6.252;2022-12-29T06:45:55;11.20;99.90
37432;DHT22;23292;51.300;6.252;2022-12-29T06:48:21;11.40;99.90
37432;DHT22;23292;51.300;6.252;2022-12-29T06:50:48;11.40;99.90
37432;DHT22;23292;51.300;6.252;2022-12-29T06:53:15;11.30;99.90
37432;DHT22;23292;51.300;6.252;2022-12-29T06:55:42;11.30;99.90
37432;DHT22;23292;51.300;6.252;2022-12-29T06:58:09;11.30;99.90
37432;DHT22;23292;51.300;6.252;2022-12-29T07:00:35;11.20;99.90
37432;DHT22;23292;51.300;6.252;2022-12-29T07:03:02;11.30;99.90
37432;DHT22;23292;51.300;6.252;2022-12-29T07:05:29;11.30;99.90
37432;DHT22;23292;51.300;6.252;2022-12-29T07:07:58;11.30;99.90
37432;DHT22;23292;51.300;6.252;2022-12-29T07:10:25;11.30;99.90
37432;DHT22;23292;51.300;6.252;2022-12-29T07:12:51;11.20;99.90
37432;DHT22;23292;51.300;6.252;2022-12-29T07:15:18;11.10;99.90
37432;DHT22;23292;51.300;6.252;2022-12-29T07:17:45;11.00;99.90
37432;DHT22;23292;51.300;6.252;2022-12-29T07:20:12;11.00;99.90
37432;DHT22;23292;51.300;6.252;2022-12-29T07:22:38;11.10;99.90
37432;DHT22;23292;51.300;6.252;2022-12-29T07:25:05;11.20;99.90
37432;DHT22;23292;51.300;6.252;2022-12-29T07:27:32;11.30;99.90
37432;DHT22;23292;51.300;6.252;2022-12-29T07:29:59;11.30;99.90
37432;DHT22;23292;51.300;6.252;2022-12-29T07:32:26;11.20;99.90
37432;DHT22;23292;51.300;6.252;2022-12-29T07:34:53;11.20;99.90
37432;DHT22;23292;51.300;6.252;2022-12-29T07:37:20;11.20;99.90
37432;DHT22;23292;51.300;6.252;2022-12-29T07:39:46;11.20;99.90
37432;DHT22;23292;51.300;6.252;2022-12-29T07:42:13;11.20;99.90
37432;DHT22;23292;51.300;6.252;2022-12-29T07:44:42;11.20;99.90
37432;DHT22;23292;51.300;6.252;2022-12-29T07:47:15;11.20;99.90
37432;DHT22;23292;51.300;6.252;2022-12-29T07:49:42;11.20;99.90
37432;DHT22;23292;51.300;6.252;2022-12-29T07:52:09;11.20;99.90
37432;DHT22;23292;51.300;6.252;2022-12-29T07:54:36;11.20;99.90
37432;DHT22;23292;51.300;6.252;2022-12-29T07:57:03;11.10;99.90
37432;DHT22;23292;51.300;6.252;2022-12-29T07:59:30;11.10;99.90
37432;DHT22;23292;51.300;6.252;2022-12-29T08:01:58;11.10;99.90
37432;DHT22;23292;51.300;6.252;2022-12-29T08:04:25;11.10;99.90
37432;DHT22;23292;51.300;6.252;2022-12-29T08:06:52;11.10;99.90
37432;DHT22;23292;51.300;6.252;2022-12-29T08:09:18;11.10;99.90
37432;DHT22;23292;51.300;6.252;2022-12-29T08:11:49;11.20;99.90
37432;DHT22;23292;51.300;6.252;2022-12-29T08:14:17;11.20;99.90
37432;DHT22;23292;51.300;6.252;2022-12-29T08:16:44;11.20;99.90
37432;DHT22;23292;51.300;6.252;2022-12-29T08:19:12;11.20;99.90
37432;DHT22;23292;51.300;6.252;2022-12-29T08:21:39;11.20;99.90
37432;DHT22;23292;51.300;6.252;2022-12-29T08:24:06;11.20;99.90
37432;DHT22;23292;51.300;6.252;2022-12-29T08:26:34;11.20;99.90
37432;DHT22;23292;51.300;6.252;2022-12-29T08:29:01;11.30;99.90
37432;DHT22;23292;51.300;6.252;2022-12-29T08:31:27;11.20;99.90
37432;DHT22;23292;51.300;6.252;2022-12-29T08:33:54;11.20;99.90
37432;DHT22;23292;51.300;6.252;2022-12-29T08:36:21;11.20;99.90
37432;DHT22;23292;51.300;6.252;2022-12-29T08:38:48;11.20;99.90
37432;DHT22;23292;51.300;6.252;2022-12-29T08:41:15;11.10;99.90
37432;DHT22;23292;51.300;6.252;2022-12-29T08:43:46;11.00;99.90
37432;DHT22;23292;51.300;6.252;2022-12-29T08:46:13;11.00;99.90
37432;DHT22;23292;51.300;6.252;2022-12-29T08:48:40;11.10;99.90
37432;DHT22;23292;51.300;6.252;2022-12-29T08:51:07;11.10;99.90
37432;DHT22;23292;51.300;6.252;2022-12-29T08:53:34;11.10;99.90
37432;DHT22;23292;51.300;6.252;2022-12-29T08:56:02;11.20;99.90
37432;DHT22;23292;51.300;6.252;2022-12-29T08:58:40;11.30;99.90
37432;DHT22;23292;51.300;6.252;2022-12-29T09:01:07;11.30;99.90
37432;DHT22;23292;51.300;6.252;2022-12-29T09:03:34;11.30;99.90
37432;DHT22;23292;51.300;6.252;2022-12-29T09:06:21;11.30;99.90
37432;DHT22;23292;51.300;6.252;2022-12-29T09:08:53;11.30;99.90
37432;DHT22;23292;51.300;6.252;2022-12-29T09:11:39;11.30;99.90
37432;DHT22;23292;51.300;6.252;2022-12-29T09:14:26;11.30;99.90
37432;DHT22;23292;51.300;6.252;2022-12-29T09:17:22;11.30;99.90
37432;DHT22;23292;51.300;6.252;2022-12-29T09:20:38;11.20;99.90
37432;DHT22;23292;51.300;6.252;2022-12-29T09:31:29;11.40;99.90
37432;DHT22;23292;51.300;6.252;2022-12-29T09:34:30;11.40;99.90
37432;DHT22;23292;51.300;6.252;2022-12-29T09:36:57;11.40;99.90
37432;DHT22;23292;51.300;6.252;2022-12-29T09:39:23;11.30;99.90
37432;DHT22;23292;51.300;6.252;2022-12-29T09:44:55;11.40;99.90
37432;DHT22;23292;51.300;6.252;2022-12-29T09:47:25;11.50;99.90
37432;DHT22;23292;51.300;6.252;2022-12-29T09:49:53;11.50;99.90
37432;DHT22;23292;51.300;6.252;2022-12-29T09:55:10;11.40;99.90
37432;DHT22;23292;51.300;6.252;2022-12-29T09:57:59;11.40;99.90
37432;DHT22;23292;51.300;6.252;2022-12-29T10:01:08;11.30;99.90
37432;DHT22;23292;51.300;6.252;2022-12-29T10:03:52;11.40;99.90
37432;DHT22;23292;51.300;6.252;2022-12-29T10:06:37;11.40;99.90
37432;DHT22;23292;51.300;6.252;2022-12-29T10:09:58;11.60;99.90
37432;DHT22;23292;51.300;6.252;2022-12-29T10:15:29;11.70;99.90
37432;DHT22;23292;51.300;6.252;2022-12-29T10:23:31;11.70;99.90
37432;DHT22;23292;51.300;6.252;2022-12-29T10:25:59;11.60;99.90
37432;DHT22;23292;51.300;6.252;2022-12-29T10:28:35;11.50;99.90
37432;DHT22;23292;51.300;6.252;2022-12-29T10:31:22;11.40;99.90
37432;DHT22;23292;51.300;6.252;2022-12-29T10:33:57;11.40;99.90
37432;DHT22;23292;51.300;6.252;2022-12-29T10:36:35;11.40;99.90
37432;DHT22;23292;51.300;6.252;2022-12-29T10:39:27;11.40;99.90
37432;DHT22;23292;51.300;6.252;2022-12-29T10:42:15;11.30;99.90
37432;DHT22;23292;51.300;6.252;2022-12-29T10:44:46;11.30;99.90
37432;DHT22;23292;51.300;6.252;2022-12-29T10:47:23;11.30;99.90
37432;DHT22;23292;51.300;6.252;2022-12-29T10:49:52;11.40;99.90
37432;DHT22;23292;51.300;6.252;2022-12-29T10:52:20;11.40;99.90
37432;DHT22;23292;51.300;6.252;2022-12-29T10:55:12;11.40;99.90
37432;DHT22;23292;51.300;6.252;2022-12-29T10:57:43;11.40;99.90
37432;DHT22;23292;51.300;6.252;2022-12-29T11:00:21;11.40;99.90
37432;DHT22;23292;51.300;6.252;2022-12-29T11:03:14;11.40;99.90
37432;DHT22;23292;51.300;6.252;2022-12-29T11:08:28;11.70;99.90
37432;DHT22;23292;51.300;6.252;2022-12-29T11:11:05;11.80;99.90
37432;DHT22;23292;51.300;6.252;2022-12-29T11:13:35;11.70;99.90
37432;DHT22;23292;51.300;6.252;2022-12-29T11:16:05;11.70;99.90
37432;DHT22;23292;51.300;6.252;2022-12-29T11:18:36;11.80;99.90
37432;DHT22;23292;51.300;6.252;2022-12-29T11:21:32;11.80;99.90
37432;DHT22;23292;51.300;6.252;2022-12-29T11:24:05;11.80;99.90
37432;DHT22;23292;51.300;6.252;2022-12-29T11:26:33;11.90;99.90
37432;DHT22;23292;51.300;6.252;2022-12-29T11:31:52;11.90;99.90
37432;DHT22;23292;51.300;6.252;2022-12-29T11:34:23;11.90;99.90
37432;DHT22;23292;51.300;6.252;2022-12-29T11:36:57;11.90;99.90
37432;DHT22;23292;51.300;6.252;2022-12-29T11:41:55;11.80;99.90
37432;DHT22;23292;51.300;6.252;2022-12-29T11:44:21;11.90;99.90
37432;DHT22;23292;51.300;6.252;2022-12-29T11:46:51;11.90;99.90
37432;DHT22;23292;51.300;6.252;2022-12-29T11:49:21;11.90;99.90
37432;DHT22;23292;51.300;6.252;2022-12-29T11:51:50;11.90;99.90
37432;DHT22;23292;51.300;6.252;2022-12-29T11:54:21;11.80;99.90
37432;DHT22;23292;51.300;6.252;2022-12-29T11:56:49;11.80;99.90
37432;DHT22;23292;51.300;6.252;2022-12-29T12:01:54;11.80;99.90
37432;DHT22;23292;51.300;6.252;2022-12-29T12:04:23;11.70;99.90
37432;DHT22;23292;51.300;6.252;2022-12-29T12:09:38;11.80;99.90
37432;DHT22;23292;51.300;6.252;2022-12-29T12:12:23;11.70;99.90
37432;DHT22;23292;51.300;6.252;2022-12-29T12:15:01;11.70;99.90
37432;DHT22;23292;51.300;6.252;2022-12-29T12:17:54;11.70;99.90
37432;DHT22;23292;51.300;6.252;2022-12-29T12:20:49;11.70;99.90
37432;DHT22;23292;51.300;6.252;2022-12-29T12:26:20;11.80;99.90
37432;DHT22;23292;51.300;6.252;2022-12-29T12:28:57;11.80;99.90
37432;DHT22;23292;51.300;6.252;2022-12-29T12:31:39;11.80;99.90
37432;DHT22;23292;51.300;6.252;2022-12-29T12:34:13;11.70;99.90
37432;DHT22;23292;51.300;6.252;2022-12-29T12:37:02;11.80;99.90
37432;DHT22;23292;51.300;6.252;2022-12-29T12:40:03;11.80;99.90
37432;DHT22;23292;51.300;6.252;2022-12-29T12:42:58;11.80;99.90
37432;DHT22;23292;51.300;6.252;2022-12-29T12:46:07;11.70;99.90
37432;DHT22;23292;51.300;6.252;2022-12-29T12:48:52;11.70;99.90
37432;DHT22;23292;51.300;6.252;2022-12-29T12:57:34;11.70;99.90
37432;DHT22;23292;51.300;6.252;2022-12-29T13:00:10;11.70;99.90
37432;DHT22;23292;51.300;6.252;2022-12-29T13:03:10;11.70;99.90
37432;DHT22;23292;51.300;6.252;2022-12-29T13:06:12;11.70;99.90
37432;DHT22;23292;51.300;6.252;2022-12-29T13:09:20;11.60;99.90
37432;DHT22;23292;51.300;6.252;2022-12-29T13:15:08;11.50;99.90
37432;DHT22;23292;51.300;6.252;2022-12-29T13:17:46;11.50;99.90
37432;DHT22;23292;51.300;6.252;2022-12-29T13:20:42;11.40;99.90
37432;DHT22;23292;51.300;6.252;2022-12-29T13:23:22;11.40;99.90
37432;DHT22;23292;51.300;6.252;2022-12-29T13:28:56;11.40;99.90
37432;DHT22;23292;51.300;6.252;2022-12-29T13:34:53;11.40;99.90
37432;DHT22;23292;51.300;6.252;2022-12-29T13:37:26;11.40;99.90
37432;DHT22;23292;51.300;6.252;2022-12-29T13:39:57;11.40;99.90
37432;DHT22;23292;51.300;6.252;2022-12-29T13:42:26;11.40;99.90
37432;DHT22;23292;51.300;6.252;2022-12-29T13:44:59;11.40;99.90
37432;DHT22;23292;51.300;6.252;2022-12-29T13:50:18;11.40;99.90
37432;DHT22;23292;51.300;6.252;2022-12-29T13:55:45;11.40;99.90
37432;DHT22;23292;51.300;6.252;2022-12-29T13:58:38;11.40;99.90
37432;DHT22;23292;51.300;6.252;2022-12-29T14:03:52;11.50;99.90
37432;DHT22;23292;51.300;6.252;2022-12-29T14:09:01;11.50;99.90
37432;DHT22;23292;51.300;6.252;2022-12-29T14:11:39;11.50;99.90
37432;DHT22;23292;51.300;6.252;2022-12-29T14:14:25;11.50;99.90
37432;DHT22;23292;51.300;6.252;2022-12-29T14:16:54;11.50;99.90
37432;DHT22;23292;51.300;6.252;2022-12-29T14:19:26;11.40;99.90
37432;DHT22;23292;51.300;6.252;2022-12-29T14:21:59;11.40;99.90
37432;DHT22;23292;51.300;6.252;2022-12-29T14:35:37;11.40;99.90
37432;DHT22;23292;51.300;6.252;2022-12-29T14:38:18;11.30;99.90
37432;DHT22;23292;51.300;6.252;2022-12-29T14:41:40;11.30;99.90
37432;DHT22;23292;51.300;6.252;2022-12-29T14:44:18;11.20;99.90
37432;DHT22;23292;51.300;6.252;2022-12-29T14:49:22;11.20;99.90
37432;DHT22;23292;51.300;6.252;2022-12-29T14:51:53;11.10;99.90
37432;DHT22;23292;51.300;6.252;2022-12-29T14:57:02;11.10;99.90
37432;DHT22;23292;51.300;6.252;2022-12-29T14:59:32;11.10;99.90
37432;DHT22;23292;51.300;6.252;2022-12-29T15:02:02;11.10;99.90
37432;DHT22;23292;51.300;6.252;2022-12-29T15:04:32;11.10;99.90
37432;DHT22;23292;51.300;6.252;2022-12-29T15:07:00;11.10;99.90
37432;DHT22;23292;51.300;6.252;2022-12-29T15:09:42;11.00;99.90
37432;DHT22;23292;51.300;6.252;2022-12-29T15:12:20;11.00;99.90
37432;DHT22;23292;51.300;6.252;2022-12-29T15:14:53;11.00;99.90
37432;DHT22;23292;51.300;6.252;2022-12-29T15:17:38;11.00;99.90
37432;DHT22;23292;51.300;6.252;2022-12-29T15:20:35;11.00;99.90
37432;DHT22;23292;51.300;6.252;2022-12-29T15:23:08;10.90;99.90
37432;DHT22;23292;51.300;6.252;2022-12-29T15:25:36;10.90;99.90
37432;DHT22;23292;51.300;6.252;2022-12-29T15:28:05;10.80;99.90
37432;DHT22;23292;51.300;6.252;2022-12-29T15:30:33;10.70;99.90
37432;DHT22;23292;51.300;6.252;2022-12-29T15:33:00;10.60;99.90
37432;DHT22;23292;51.300;6.252;2022-12-29T15:35:36;10.50;99.90
37432;DHT22;23292;51.300;6.252;2022-12-29T15:38:24;10.50;99.90
37432;DHT22;23292;51.300;6.252;2022-12-29T15:41:05;10.40;99.90
37432;DHT22;23292;51.300;6.252;2022-12-29T15:46:13;10.10;99.90
37432;DHT22;23292;51.300;6.252;2022-12-29T15:48:40;10.00;99.90
37432;DHT22;23292;51.300;6.252;2022-12-29T15:51:18;10.00;99.90
37432;DHT22;23292;51.300;6.252;2022-12-29T15:53:49;10.00;99.90
37432;DHT22;23292;51.300;6.252;2022-12-29T15:56:17;10.00;99.90
37432;DHT22;23292;51.300;6.252;2022-12-29T15:58:47;10.00;99.90
37432;DHT22;23292;51.300;6.252;2022-12-29T16:01:29;10.00;99.90
37432;DHT22;23292;51.300;6.252;2022-12-29T16:04:04;10.10;99.90
37432;DHT22;23292;51.300;6.252;2022-12-29T16:06:33;10.10;99.90
37432;DHT22;23292;51.300;6.252;2022-12-29T16:11:37;10.00;99.90
37432;DHT22;23292;51.300;6.252;2022-12-29T16:14:10;10.10;99.90
37432;DHT22;23292;51.300;6.252;2022-12-29T16:16:41;10.10;99.90
37432;DHT22;23292;51.300;6.252;2022-12-29T16:19:23;10.20;99.90
37432;DHT22;23292;51.300;6.252;2022-12-29T16:21:51;10.20;99.90
37432;DHT22;23292;51.300;6.252;2022-12-29T16:24:24;10.20;99.90
37432;DHT22;23292;51.300;6.252;2022-12-29T16:27:02;10.20;99.90
37432;DHT22;23292;51.300;6.252;2022-12-29T16:29:30;10.20;99.90
37432;DHT22;23292;51.300;6.252;2022-12-29T16:31:59;10.20;99.90
37432;DHT22;23292;51.300;6.252;2022-12-29T16:34:33;10.20;99.90
37432;DHT22;23292;51.300;6.252;2022-12-29T16:39:55;9.40;99.90
37432;DHT22;23292;51.300;6.252;2022-12-29T16:42:45;8.80;99.90
37432;DHT22;23292;51.300;6.252;2022-12-29T16:50:38;8.30;99.90
37432;DHT22;23292;51.300;6.252;2022-12-29T16:53:06;8.30;99.90
37432;DHT22;23292;51.300;6.252;2022-12-29T16:55:46;8.20;99.90
37432;DHT22;23292;51.300;6.252;2022-12-29T16:58:21;8.20;99.90
37432;DHT22;23292;51.300;6.252;2022-12-29T17:00:49;8.20;99.90
37432;DHT22;23292;51.300;6.252;2022-12-29T17:03:16;8.10;99.90
37432;DHT22;23292;51.300;6.252;2022-12-29T17:05:42;8.10;99.90
37432;DHT22;23292;51.300;6.252;2022-12-29T17:08:20;8.10;99.90
37432;DHT22;23292;51.300;6.252;2022-12-29T17:10:51;8.10;99.90
37432;DHT22;23292;51.300;6.252;2022-12-29T17:13:37;8.10;99.90
37432;DHT22;23292;51.300;6.252;2022-12-29T17:16:06;8.20;99.90
37432;DHT22;23292;51.300;6.252;2022-12-29T17:18:34;8.10;99.90
37432;DHT22;23292;51.300;6.252;2022-12-29T17:21:01;8.10;99.90
37432;DHT22;23292;51.300;6.252;2022-12-29T17:23:29;8.10;99.90
37432;DHT22;23292;51.300;6.252;2022-12-29T17:25:57;8.00;99.90
37432;DHT22;23292;51.300;6.252;2022-12-29T17:28:27;7.90;99.90
37432;DHT22;23292;51.300;6.252;2022-12-29T17:31:02;7.80;99.90
37432;DHT22;23292;51.300;6.252;2022-12-29T17:33:35;7.80;99.90
37432;DHT22;23292;51.300;6.252;2022-12-29T17:36:02;7.80;99.90
37432;DHT22;23292;51.300;6.252;2022-12-29T17:38:31;7.80;99.90
37432;DHT22;23292;51.300;6.252;2022-12-29T17:41:00;7.70;99.90
37432;DHT22;23292;51.300;6.252;2022-12-29T17:43:27;7.70;99.90
37432;DHT22;23292;51.300;6.252;2022-12-29T17:46:05;7.70;99.90
37432;DHT22;23292;51.300;6.252;2022-12-29T17:48:32;7.70;99.90
37432;DHT22;23292;51.300;6.252;2022-12-29T17:50:59;7.70;99.90
37432;DHT22;23292;51.300;6.252;2022-12-29T17:53:28;7.70;99.90
37432;DHT22;23292;51.300;6.252;2022-12-29T17:55:55;7.70;99.90
37432;DHT22;23292;51.300;6.252;2022-12-29T17:58:24;7.70;99.90
37432;DHT22;23292;51.300;6.252;2022-12-29T18:00:54;7.60;99.90
37432;DHT22;23292;51.300;6.252;2022-12-29T18:03:28;7.50;99.90
37432;DHT22;23292;51.300;6.252;2022-12-29T18:05:56;7.40;99.90
37432;DHT22;23292;51.300;6.252;2022-12-29T18:08:23;7.40;99.90
37432;DHT22;23292;51.300;6.252;2022-12-29T18:10:50;7.50;99.90
37432;DHT22;23292;51.300;6.252;2022-12-29T18:13:25;7.40;99.90
37432;DHT22;23292;51.300;6.252;2022-12-29T18:16:04;7.40;99.90
37432;DHT22;23292;51.300;6.252;2022-12-29T18:18:31;7.40;99.90
37432;DHT22;23292;51.300;6.252;2022-12-29T18:20:58;7.40;99.90
37432;DHT22;23292;51.300;6.252;2022-12-29T18:23:28;7.40;99.90
37432;DHT22;23292;51.300;6.252;2022-12-29T18:26:06;7.40;99.90
37432;DHT22;23292;51.300;6.252;2022-12-29T18:28:37;7.40;99.90